sensor_id;sensor_type;location;lat;lon;timestamp;temperature;humidity
4518;DHT22;2271;49.464;11.070;2023-02-11T00:02:24;1.90;99.90
4518;DHT22;2271;49.464;11.070;2023-02-11T00:04:52;1.90;99.90
4518;DHT22;2271;49.464;11.070;2023-02-11T00:07:17;1.90;99.90
4518;DHT22;2271;49.464;11.070;2023-02-11T00:09:43;1.90;99.90
4518;DHT22;2271;49.464;11.070;2023-02-11T00:12:09;1.90;99.90
4518;DHT22;2271;49.464;11.070;2023-02-11T00:14:34;1.90;99.90
4518;DHT22;2271;49.464;11.070;2023-02-11T00:17:00;1.80;99.90
4518;DHT22;2271;49.464;11.070;2023-02-11T00:19:26;1.80;99.90
4518;DHT22;2271;49.464;11.070;2023-02-11T00:21:51;1.80;99.90
4518;DHT22;2271;49.464;11.070;2023-02-11T00:24:17;1.80;99.90
4518;DHT22;2271;49.464;11.070;2023-02-11T00:26:42;1.80;99.90
4518;DHT22;2271;49.464;11.070;2023-02-11T00:29:09;1.80;99.90
4518;DHT22;2271;49.464;11.070;2023-02-11T00:31:34;1.80;99.90
4518;DHT22;2271;49.464;11.070;2023-02-11T00:34:00;1.80;99.90
4518;DHT22;2271;49.464;11.070;2023-02-11T00:36:27;1.70;99.90
4518;DHT22;2271;49.464;11.070;2023-02-11T00:38:55;1.60;99.90
4518;DHT22;2271;49.464;11.070;2023-02-11T00:41:22;1.60;99.90
4518;DHT22;2271;49.464;11.070;2023-02-11T00:43:48;1.60;99.90
4518;DHT22;2271;49.464;11.070;2023-02-11T00:46:14;1.60;99.90
4518;DHT22;2271;49.464;11.070;2023-02-11T00:48:40;1.60;99.90
4518;DHT22;2271;49.464;11.070;2023-02-11T00:51:06;1.70;99.90
4518;DHT22;2271;49.464;11.070;2023-02-11T00:53:32;1.70;99.90
4518;DHT22;2271;49.464;11.070;2023-02-11T00:55:58;1.70;99.90
4518;DHT22;2271;49.464;11.070;2023-02-11T00:58:26;1.80;99.90
4518;DHT22;2271;49.464;11.070;2023-02-11T01:00:52;1.70;99.90
4518;DHT22;2271;49.464;11.070;2023-02-11T01:03:18;1.80;99.90
4518;DHT22;2271;49.464;11.070;2023-02-11T01:05:44;1.80;99.90
4518;DHT22;2271;49.464;11.070;2023-02-11T01:08:09;1.80;99.90
4518;DHT22;2271;49.464;11.070;2023-02-11T01:10:35;1.80;99.90
4518;DHT22;2271;49.464;11.070;2023-02-11T01:13:00;1.80;99.90
4518;DHT22;2271;49.464;11.070;2023-02-11T01:15:27;1.80;99.90
4518;DHT22;2271;49.464;11.070;2023-02-11T01:17:52;1.80;99.90
4518;DHT22;2271;49.464;11.070;2023-02-11T01:20:21;1.80;99.90
4518;DHT22;2271;49.464;11.070;2023-02-11T01:22:47;1.90;99.90
4518;DHT22;2271;49.464;11.070;2023-02-11T01:25:13;1.80;99.90
4518;DHT22;2271;49.464;11.070;2023-02-11T01:27:38;1.90;99.90
4518;DHT22;2271;49.464;11.070;2023-02-11T01:30:07;1.90;99.90
4518;DHT22;2271;49.464;11.070;2023-02-11T01:32:33;1.90;99.90
4518;DHT22;2271;49.464;11.070;2023-02-11T01:34:59;1.90;99.90
4518;DHT22;2271;49.464;11.070;2023-02-11T01:37:25;1.90;99.90
4518;DHT22;2271;49.464;11.070;2023-02-11T01:39:51;1.90;99.90
4518;DHT22;2271;49.464;11.070;2023-02-11T01:42:19;2.00;99.90
4518;DHT22;2271;49.464;11.070;2023-02-11T01:44:49;2.00;99.90
4518;DHT22;2271;49.464;11.070;2023-02-11T01:47:16;2.00;99.90
4518;DHT22;2271;49.464;11.070;2023-02-11T01:49:45;2.00;99.90
4518;DHT22;2271;49.464;11.070;2023-02-11T01:52:28;1.90;99.90
4518;DHT22;2271;49.464;11.070;2023-02-11T01:55:02;1.90;99.90
4518;DHT22;2271;49.464;11.070;2023-02-11T01:57:51;1.90;99.90
4518;DHT22;2271;49.464;11.070;2023-02-11T02:00:23;1.90;99.90
4518;DHT22;2271;49.464;11.070;2023-02-11T02:03:11;1.90;99.90
4518;DHT22;2271;49.464;11.070;2023-02-11T02:08:53;1.90;99.90
4518;DHT22;2271;49.464;11.070;2023-02-11T02:11:19;1.80;99.90
4518;DHT22;2271;49.464;11.070;2023-02-11T02:13:45;1.80;99.90
4518;DHT22;2271;49.464;11.070;2023-02-11T02:16:13;1.90;99.90
4518;DHT22;2271;49.464;11.070;2023-02-11T02:35:22;1.90;99.90
4518;DHT22;2271;49.464;11.070;2023-02-11T02:38:10;2.00;99.90
4518;DHT22;2271;49.464;11.070;2023-02-11T02:40:44;2.00;99.90
4518;DHT22;2271;49.464;11.070;2023-02-11T02:43:11;2.00;99.90
4518;DHT22;2271;49.464;11.070;2023-02-11T02:45:38;2.00;99.90
4518;DHT22;2271;49.464;11.070;2023-02-11T02:48:03;1.90;99.90
4518;DHT22;2271;49.464;11.070;2023-02-11T02:50:32;2.00;99.90
4518;DHT22;2271;49.464;11.070;2023-02-11T02:53:29;2.00;99.90
4518;DHT22;2271;49.464;11.070;2023-02-11T03:06:40;2.00;99.90
4518;DHT22;2271;49.464;11.070;2023-02-11T03:09:24;2.00;99.90
4518;DHT22;2271;49.464;11.070;2023-02-11T03:11:51;2.00;99.90
4518;DHT22;2271;49.464;11.070;2023-02-11T03:14:17;2.00;99.90
4518;DHT22;2271;49.464;11.070;2023-02-11T03:16:45;2.00;99.90
4518;DHT22;2271;49.464;11.070;2023-02-11T03:21:43;2.00;99.90
4518;DHT22;2271;49.464;11.070;2023-02-11T03:24:15;2.00;99.90
4518;DHT22;2271;49.464;11.070;2023-02-11T03:26:50;2.00;99.90
4518;DHT22;2271;49.464;11.070;2023-02-11T03:30:19;2.10;99.90
4518;DHT22;2271;49.464;11.070;2023-02-11T03:32:51;2.00;99.90
4518;DHT22;2271;49.464;11.070;2023-02-11T03:35:26;2.00;99.90
4518;DHT22;2271;49.464;11.070;2023-02-11T03:37:58;2.00;99.90
4518;DHT22;2271;49.464;11.070;2023-02-11T03:40:35;2.00;99.90
4518;DHT22;2271;49.464;11.070;2023-02-11T03:43:11;2.00;99.90
4518;DHT22;2271;49.464;11.070;2023-02-11T03:45:39;2.00;99.90
4518;DHT22;2271;49.464;11.070;2023-02-11T03:50:45;2.00;99.90
4518;DHT22;2271;49.464;11.070;2023-02-11T03:53:13;1.90;99.90
4518;DHT22;2271;49.464;11.070;2023-02-11T03:55:40;2.00;99.90
4518;DHT22;2271;49.464;11.070;2023-02-11T03:58:06;2.00;99.90
4518;DHT22;2271;49.464;11.070;2023-02-11T04:00:38;1.90;99.90
4518;DHT22;2271;49.464;11.070;2023-02-11T04:03:04;1.90;99.90
4518;DHT22;2271;49.464;11.070;2023-02-11T04:05:30;2.00;99.90
4518;DHT22;2271;49.464;11.070;2023-02-11T04:07:56;2.00;99.90
4518;DHT22;2271;49.464;11.070;2023-02-11T04:10:22;2.10;99.90
4518;DHT22;2271;49.464;11.070;2023-02-11T04:12:47;2.20;99.90
4518;DHT22;2271;49.464;11.070;2023-02-11T04:15:13;2.30;99.90
4518;DHT22;2271;49.464;11.070;2023-02-11T04:17:39;2.30;99.90
4518;DHT22;2271;49.464;11.070;2023-02-11T04:20:04;2.30;99.90
4518;DHT22;2271;49.464;11.070;2023-02-11T04:22:30;2.40;99.90
4518;DHT22;2271;49.464;11.070;2023-02-11T04:24:56;2.30;99.90
4518;DHT22;2271;49.464;11.070;2023-02-11T04:27:21;2.20;99.90
4518;DHT22;2271;49.464;11.070;2023-02-11T04:29:47;2.20;99.90
4518;DHT22;2271;49.464;11.070;2023-02-11T04:32:13;2.20;99.90
4518;DHT22;2271;49.464;11.070;2023-02-11T04:34:39;2.10;99.90
4518;DHT22;2271;49.464;11.070;2023-02-11T04:37:04;2.00;99.90
4518;DHT22;2271;49.464;11.070;2023-02-11T04:39:30;1.90;99.90
4518;DHT22;2271;49.464;11.070;2023-02-11T04:41:56;1.90;99.90
4518;DHT22;2271;49.464;11.070;2023-02-11T04:44:22;1.80;99.90
4518;DHT22;2271;49.464;11.070;2023-02-11T04:46:47;1.80;99.90
4518;DHT22;2271;49.464;11.070;2023-02-11T04:49:14;1.90;99.90
4518;DHT22;2271;49.464;11.070;2023-02-11T04:51:41;1.90;99.90
4518;DHT22;2271;49.464;11.070;2023-02-11T04:54:07;1.90;99.90
4518;DHT22;2271;49.464;11.070;2023-02-11T04:56:32;1.90;99.90
4518;DHT22;2271;49.464;11.070;2023-02-11T04:58:58;2.00;99.90
4518;DHT22;2271;49.464;11.070;2023-02-11T05:01:24;2.10;99.90
4518;DHT22;2271;49.464;11.070;2023-02-11T05:03:49;2.10;99.90
4518;DHT22;2271;49.464;11.070;2023-02-11T05:06:15;2.10;99.90
4518;DHT22;2271;49.464;11.070;2023-02-11T05:08:41;2.10;99.90
4518;DHT22;2271;49.464;11.070;2023-02-11T05:11:07;2.10;99.90
4518;DHT22;2271;49.464;11.070;2023-02-11T05:13:33;2.10;99.90
4518;DHT22;2271;49.464;11.070;2023-02-11T05:15:59;2.20;99.90
4518;DHT22;2271;49.464;11.070;2023-02-11T05:18:25;2.20;99.90
4518;DHT22;2271;49.464;11.070;2023-02-11T05:20:50;2.20;99.90
4518;DHT22;2271;49.464;11.070;2023-02-11T05:23:16;2.20;99.90
4518;DHT22;2271;49.464;11.070;2023-02-11T05:25:41;2.20;99.90
4518;DHT22;2271;49.464;11.070;2023-02-11T05:28:07;2.30;99.90
4518;DHT22;2271;49.464;11.070;2023-02-11T05:30:33;2.40;99.90
4518;DHT22;2271;49.464;11.070;2023-02-11T05:32:58;2.40;99.90
4518;DHT22;2271;49.464;11.070;2023-02-11T05:35:24;2.40;99.90
4518;DHT22;2271;49.464;11.070;2023-02-11T05:37:49;2.40;99.90
4518;DHT22;2271;49.464;11.070;2023-02-11T05:40:15;2.40;99.90
4518;DHT22;2271;49.464;11.070;2023-02-11T05:42:41;2.40;99.90
4518;DHT22;2271;49.464;11.070;2023-02-11T05:45:07;2.50;99.90
4518;DHT22;2271;49.464;11.070;2023-02-11T05:47:33;2.50;99.90
4518;DHT22;2271;49.464;11.070;2023-02-11T05:49:58;2.60;99.90
4518;DHT22;2271;49.464;11.070;2023-02-11T05:52:24;2.60;99.90
4518;DHT22;2271;49.464;11.070;2023-02-11T05:54:50;2.60;99.90
4518;DHT22;2271;49.464;11.070;2023-02-11T05:57:16;2.60;99.90
4518;DHT22;2271;49.464;11.070;2023-02-11T05:59:41;2.60;99.90
4518;DHT22;2271;49.464;11.070;2023-02-11T06:02:08;2.60;99.90
4518;DHT22;2271;49.464;11.070;2023-02-11T06:04:34;2.60;99.90
4518;DHT22;2271;49.464;11.070;2023-02-11T06:07:00;2.60;99.90
4518;DHT22;2271;49.464;11.070;2023-02-11T06:09:26;2.70;99.90
4518;DHT22;2271;49.464;11.070;2023-02-11T06:11:52;2.70;99.90
4518;DHT22;2271;49.464;11.070;2023-02-11T06:14:17;2.70;99.90
4518;DHT22;2271;49.464;11.070;2023-02-11T06:16:43;2.80;99.90
4518;DHT22;2271;49.464;11.070;2023-02-11T06:19:10;2.80;99.90
4518;DHT22;2271;49.464;11.070;2023-02-11T06:21:35;2.80;99.90
4518;DHT22;2271;49.464;11.070;2023-02-11T06:24:01;2.80;99.90
4518;DHT22;2271;49.464;11.070;2023-02-11T06:26:27;2.80;99.90
4518;DHT22;2271;49.464;11.070;2023-02-11T06:28:52;2.80;99.90
4518;DHT22;2271;49.464;11.070;2023-02-11T06:31:18;2.80;99.90
4518;DHT22;2271;49.464;11.070;2023-02-11T06:33:44;2.80;99.90
4518;DHT22;2271;49.464;11.070;2023-02-11T06:36:18;2.70;99.90
4518;DHT22;2271;49.464;11.070;2023-02-11T06:38:45;2.70;99.90
4518;DHT22;2271;49.464;11.070;2023-02-11T06:41:12;2.80;99.90
4518;DHT22;2271;49.464;11.070;2023-02-11T06:43:39;2.80;99.90
4518;DHT22;2271;49.464;11.070;2023-02-11T06:46:05;2.80;99.90
4518;DHT22;2271;49.464;11.070;2023-02-11T06:48:32;2.80;99.90
4518;DHT22;2271;49.464;11.070;2023-02-11T06:51:04;2.80;99.90
4518;DHT22;2271;49.464;11.070;2023-02-11T06:53:34;2.90;99.90
4518;DHT22;2271;49.464;11.070;2023-02-11T06:56:07;2.90;99.90
4518;DHT22;2271;49.464;11.070;2023-02-11T06:58:34;2.90;99.90
4518;DHT22;2271;49.464;11.070;2023-02-11T07:01:03;2.90;99.90
4518;DHT22;2271;49.464;11.070;2023-02-11T07:03:31;2.90;99.90
4518;DHT22;2271;49.464;11.070;2023-02-11T07:05:59;2.80;99.90
4518;DHT22;2271;49.464;11.070;2023-02-11T07:08:24;2.80;99.90
4518;DHT22;2271;49.464;11.070;2023-02-11T07:10:50;2.80;99.90
4518;DHT22;2271;49.464;11.070;2023-02-11T07:13:16;2.90;99.90
4518;DHT22;2271;49.464;11.070;2023-02-11T07:15:41;2.90;99.90
4518;DHT22;2271;49.464;11.070;2023-02-11T07:18:07;2.90;99.90
4518;DHT22;2271;49.464;11.070;2023-02-11T07:20:32;2.90;99.90
4518;DHT22;2271;49.464;11.070;2023-02-11T07:22:58;3.00;99.90
4518;DHT22;2271;49.464;11.070;2023-02-11T07:25:24;3.00;99.90
4518;DHT22;2271;49.464;11.070;2023-02-11T07:27:50;3.10;99.90
4518;DHT22;2271;49.464;11.070;2023-02-11T07:30:15;3.10;99.90
4518;DHT22;2271;49.464;11.070;2023-02-11T07:32:41;3.20;99.90
4518;DHT22;2271;49.464;11.070;2023-02-11T07:35:07;3.20;99.90
4518;DHT22;2271;49.464;11.070;2023-02-11T07:37:33;3.30;99.90
4518;DHT22;2271;49.464;11.070;2023-02-11T07:39:59;3.40;99.90
4518;DHT22;2271;49.464;11.070;2023-02-11T07:42:25;3.40;99.90
4518;DHT22;2271;49.464;11.070;2023-02-11T07:44:50;3.50;99.90
4518;DHT22;2271;49.464;11.070;2023-02-11T07:47:16;3.60;99.90
4518;DHT22;2271;49.464;11.070;2023-02-11T07:49:41;3.60;99.90
4518;DHT22;2271;49.464;11.070;2023-02-11T07:52:07;3.70;99.90
4518;DHT22;2271;49.464;11.070;2023-02-11T07:54:33;3.70;99.90
4518;DHT22;2271;49.464;11.070;2023-02-11T07:56:59;3.70;99.90
4518;DHT22;2271;49.464;11.070;2023-02-11T07:59:24;3.80;99.90
4518;DHT22;2271;49.464;11.070;2023-02-11T08:01:51;3.80;99.90
4518;DHT22;2271;49.464;11.070;2023-02-11T08:04:17;3.90;99.90
4518;DHT22;2271;49.464;11.070;2023-02-11T08:06:43;3.90;99.90
4518;DHT22;2271;49.464;11.070;2023-02-11T08:09:13;4.00;99.90
4518;DHT22;2271;49.464;11.070;2023-02-11T08:11:39;4.10;99.90
4518;DHT22;2271;49.464;11.070;2023-02-11T08:14:05;4.20;99.90
4518;DHT22;2271;49.464;11.070;2023-02-11T08:16:33;4.10;99.90
4518;DHT22;2271;49.464;11.070;2023-02-11T08:19:04;4.10;99.90
4518;DHT22;2271;49.464;11.070;2023-02-11T08:21:30;4.20;99.90
4518;DHT22;2271;49.464;11.070;2023-02-11T08:23:56;4.20;99.90
4518;DHT22;2271;49.464;11.070;2023-02-11T08:26:24;4.20;99.90
4518;DHT22;2271;49.464;11.070;2023-02-11T08:28:52;4.20;99.90
4518;DHT22;2271;49.464;11.070;2023-02-11T08:31:21;4.20;99.90
4518;DHT22;2271;49.464;11.070;2023-02-11T08:33:48;4.10;99.90
4518;DHT22;2271;49.464;11.070;2023-02-11T08:36:16;4.10;99.90
4518;DHT22;2271;49.464;11.070;2023-02-11T08:38:43;4.10;99.90
4518;DHT22;2271;49.464;11.070;2023-02-11T08:41:09;4.10;99.90
4518;DHT22;2271;49.464;11.070;2023-02-11T08:43:35;4.20;99.90
4518;DHT22;2271;49.464;11.070;2023-02-11T08:46:01;4.20;99.90
4518;DHT22;2271;49.464;11.070;2023-02-11T08:48:27;4.20;99.90
4518;DHT22;2271;49.464;11.070;2023-02-11T08:50:54;4.20;99.90
4518;DHT22;2271;49.464;11.070;2023-02-11T08:53:20;4.20;99.90
4518;DHT22;2271;49.464;11.070;2023-02-11T08:55:50;4.30;99.90
4518;DHT22;2271;49.464;11.070;2023-02-11T08:58:16;4.30;99.90
4518;DHT22;2271;49.464;11.070;2023-02-11T09:00:41;4.40;99.90
4518;DHT22;2271;49.464;11.070;2023-02-11T09:03:13;4.40;99.90
4518;DHT22;2271;49.464;11.070;2023-02-11T09:05:43;4.50;99.90
4518;DHT22;2271;49.464;11.070;2023-02-11T09:08:09;4.50;99.90
4518;DHT22;2271;49.464;11.070;2023-02-11T09:10:34;4.50;99.90
4518;DHT22;2271;49.464;11.070;2023-02-11T09:13:00;4.60;99.90
4518;DHT22;2271;49.464;11.070;2023-02-11T09:15:26;4.60;99.90
4518;DHT22;2271;49.464;11.070;2023-02-11T09:17:52;5.40;99.90
4518;DHT22;2271;49.464;11.070;2023-02-11T09:20:17;5.40;99.90
4518;DHT22;2271;49.464;11.070;2023-02-11T09:22:43;5.30;99.90
4518;DHT22;2271;49.464;11.070;2023-02-11T09:25:09;5.20;99.90
4518;DHT22;2271;49.464;11.070;2023-02-11T09:27:35;5.20;99.90
4518;DHT22;2271;49.464;11.070;2023-02-11T09:30:01;5.20;99.90
4518;DHT22;2271;49.464;11.070;2023-02-11T09:32:26;5.20;99.90
4518;DHT22;2271;49.464;11.070;2023-02-11T09:34:52;5.20;99.90
4518;DHT22;2271;49.464;11.070;2023-02-11T09:37:18;5.20;99.90
4518;DHT22;2271;49.464;11.070;2023-02-11T09:39:43;5.20;99.90
4518;DHT22;2271;49.464;11.070;2023-02-11T09:45:16;5.20;99.90
4518;DHT22;2271;49.464;11.070;2023-02-11T09:47:55;5.30;99.90
4518;DHT22;2271;49.464;11.070;2023-02-11T09:50:29;5.30;99.90
4518;DHT22;2271;49.464;11.070;2023-02-11T09:53:17;5.40;99.90
4518;DHT22;2271;49.464;11.070;2023-02-11T09:55:46;5.60;99.90
4518;DHT22;2271;49.464;11.070;2023-02-11T09:58:16;5.60;99.90
4518;DHT22;2271;49.464;11.070;2023-02-11T10:06:06;5.60;99.90
4518;DHT22;2271;49.464;11.070;2023-02-11T10:11:46;5.80;99.90
4518;DHT22;2271;49.464;11.070;2023-02-11T10:22:26;6.10;99.90
4518;DHT22;2271;49.464;11.070;2023-02-11T10:24:55;6.10;99.90
4518;DHT22;2271;49.464;11.070;2023-02-11T10:27:31;6.00;99.90
4518;DHT22;2271;49.464;11.070;2023-02-11T10:30:21;6.10;99.90
4518;DHT22;2271;49.464;11.070;2023-02-11T10:32:53;6.10;99.90
4518;DHT22;2271;49.464;11.070;2023-02-11T10:35:22;6.10;99.90
4518;DHT22;2271;49.464;11.070;2023-02-11T10:37:49;6.20;99.90
4518;DHT22;2271;49.464;11.070;2023-02-11T10:40:19;6.20;99.90
4518;DHT22;2271;49.464;11.070;2023-02-11T10:42:48;6.20;99.90
4518;DHT22;2271;49.464;11.070;2023-02-11T10:45:27;6.20;99.90
4518;DHT22;2271;49.464;11.070;2023-02-11T10:47:54;6.20;99.90
4518;DHT22;2271;49.464;11.070;2023-02-11T10:50:30;6.20;99.90
4518;DHT22;2271;49.464;11.070;2023-02-11T10:53:18;6.20;99.90
4518;DHT22;2271;49.464;11.070;2023-02-11T10:55:55;6.20;99.90
4518;DHT22;2271;49.464;11.070;2023-02-11T10:58:30;6.10;99.90
4518;DHT22;2271;49.464;11.070;2023-02-11T11:00:58;6.20;99.90
4518;DHT22;2271;49.464;11.070;2023-02-11T11:03:26;6.20;99.90
4518;DHT22;2271;49.464;11.070;2023-02-11T11:06:05;6.20;99.90
4518;DHT22;2271;49.464;11.070;2023-02-11T11:13:54;6.30;99.90
4518;DHT22;2271;49.464;11.070;2023-02-11T11:16:32;6.30;99.90
4518;DHT22;2271;49.464;11.070;2023-02-11T11:24:32;6.10;99.90
4518;DHT22;2271;49.464;11.070;2023-02-11T11:27:03;6.20;99.90
4518;DHT22;2271;49.464;11.070;2023-02-11T11:29:49;6.10;99.90
4518;DHT22;2271;49.464;11.070;2023-02-11T11:32:26;6.20;99.90
4518;DHT22;2271;49.464;11.070;2023-02-11T11:34:54;6.20;99.90
4518;DHT22;2271;49.464;11.070;2023-02-11T11:37:29;6.20;99.90
4518;DHT22;2271;49.464;11.070;2023-02-11T11:42:34;6.20;99.90
4518;DHT22;2271;49.464;11.070;2023-02-11T11:45:00;6.20;99.90
4518;DHT22;2271;49.464;11.070;2023-02-11T11:47:47;6.20;99.90
4518;DHT22;2271;49.464;11.070;2023-02-11T11:53:17;6.20;99.90
4518;DHT22;2271;49.464;11.070;2023-02-11T11:56:01;6.20;99.90
4518;DHT22;2271;49.464;11.070;2023-02-11T11:58:29;6.20;99.90
4518;DHT22;2271;49.464;11.070;2023-02-11T12:07:15;6.50;99.90
4518;DHT22;2271;49.464;11.070;2023-02-11T12:12:59;6.80;99.90
4518;DHT22;2271;49.464;11.070;2023-02-11T12:26:43;6.60;99.90
4518;DHT22;2271;49.464;11.070;2023-02-11T12:29:34;6.60;99.90
4518;DHT22;2271;49.464;11.070;2023-02-11T12:32:20;6.50;99.90
4518;DHT22;2271;49.464;11.070;2023-02-11T12:40:21;6.50;99.90
4518;DHT22;2271;49.464;11.070;2023-02-11T12:43:09;6.40;99.90
4518;DHT22;2271;49.464;11.070;2023-02-11T12:48:16;6.30;99.90
4518;DHT22;2271;49.464;11.070;2023-02-11T12:56:25;6.40;99.90
4518;DHT22;2271;49.464;11.070;2023-02-11T12:58:54;6.40;99.90
4518;DHT22;2271;49.464;11.070;2023-02-11T13:01:34;6.40;99.90
4518;DHT22;2271;49.464;11.070;2023-02-11T13:04:29;6.50;99.90
4518;DHT22;2271;49.464;11.070;2023-02-11T13:07:01;6.40;99.90
4518;DHT22;2271;49.464;11.070;2023-02-11T13:09:34;6.40;99.90
4518;DHT22;2271;49.464;11.070;2023-02-11T13:12:03;6.40;99.90
4518;DHT22;2271;49.464;11.070;2023-02-11T13:14:53;6.50;99.90
4518;DHT22;2271;49.464;11.070;2023-02-11T13:17:27;6.50;99.90
4518;DHT22;2271;49.464;11.070;2023-02-11T13:20:00;6.50;99.90
4518;DHT22;2271;49.464;11.070;2023-02-11T13:22:37;6.50;99.90
4518;DHT22;2271;49.464;11.070;2023-02-11T13:27:53;7.30;99.90
4518;DHT22;2271;49.464;11.070;2023-02-11T13:30:43;7.10;99.90
4518;DHT22;2271;49.464;11.070;2023-02-11T13:33:20;7.00;99.90
4518;DHT22;2271;49.464;11.070;2023-02-11T13:38:29;6.70;99.90
4518;DHT22;2271;49.464;11.070;2023-02-11T13:41:06;6.70;99.90
4518;DHT22;2271;49.464;11.070;2023-02-11T13:43:42;6.70;99.90
4518;DHT22;2271;49.464;11.070;2023-02-11T13:46:18;6.60;99.90
4518;DHT22;2271;49.464;11.070;2023-02-11T13:48:49;6.60;99.90
4518;DHT22;2271;49.464;11.070;2023-02-11T13:51:39;6.60;99.90
4518;DHT22;2271;49.464;11.070;2023-02-11T13:54:07;6.60;99.90
4518;DHT22;2271;49.464;11.070;2023-02-11T13:56:36;6.60;99.90
4518;DHT22;2271;49.464;11.070;2023-02-11T13:59:05;6.60;99.90
4518;DHT22;2271;49.464;11.070;2023-02-11T14:05:00;6.60;99.90
4518;DHT22;2271;49.464;11.070;2023-02-11T14:10:50;6.40;99.90
4518;DHT22;2271;49.464;11.070;2023-02-11T14:15:47;6.40;99.90
4518;DHT22;2271;49.464;11.070;2023-02-11T14:23:52;6.40;99.90
4518;DHT22;2271;49.464;11.070;2023-02-11T14:28:45;6.40;99.90
4518;DHT22;2271;49.464;11.070;2023-02-11T14:31:25;6.40;99.90
4518;DHT22;2271;49.464;11.070;2023-02-11T14:37:16;6.40;99.90
4518;DHT22;2271;49.464;11.070;2023-02-11T14:42:36;6.40;99.90
4518;DHT22;2271;49.464;11.070;2023-02-11T14:45:07;6.40;99.90
4518;DHT22;2271;49.464;11.070;2023-02-11T14:50:49;6.60;99.90
4518;DHT22;2271;49.464;11.070;2023-02-11T14:53:19;6.70;99.90
4518;DHT22;2271;49.464;11.070;2023-02-11T14:55:48;6.60;99.90
4518;DHT22;2271;49.464;11.070;2023-02-11T14:58:27;6.50;99.90
4518;DHT22;2271;49.464;11.070;2023-02-11T15:06:15;6.40;99.90
4518;DHT22;2271;49.464;11.070;2023-02-11T15:08:47;6.40;99.90
4518;DHT22;2271;49.464;11.070;2023-02-11T15:11:16;6.30;99.90
4518;DHT22;2271;49.464;11.070;2023-02-11T15:13:42;6.30;99.90
4518;DHT22;2271;49.464;11.070;2023-02-11T15:16:13;6.30;99.90
4518;DHT22;2271;49.464;11.070;2023-02-11T15:18:45;6.30;99.90
4518;DHT22;2271;49.464;11.070;2023-02-11T15:21:11;6.30;99.90
4518;DHT22;2271;49.464;11.070;2023-02-11T15:23:37;6.20;99.90
4518;DHT22;2271;49.464;11.070;2023-02-11T15:26:12;6.20;99.90
4518;DHT22;2271;49.464;11.070;2023-02-11T15:28:45;6.20;99.90
4518;DHT22;2271;49.464;11.070;2023-02-11T15:31:18;6.10;99.90
4518;DHT22;2271;49.464;11.070;2023-02-11T15:33:44;6.10;99.90
4518;DHT22;2271;49.464;11.070;2023-02-11T15:36:11;6.10;99.90
4518;DHT22;2271;49.464;11.070;2023-02-11T15:38:37;6.10;99.90
4518;DHT22;2271;49.464;11.070;2023-02-11T15:41:04;6.10;99.90
4518;DHT22;2271;49.464;11.070;2023-02-11T15:43:46;6.10;99.90
4518;DHT22;2271;49.464;11.070;2023-02-11T15:46:22;6.10;99.90
4518;DHT22;2271;49.464;11.070;2023-02-11T15:48:52;6.10;99.90
4518;DHT22;2271;49.464;11.070;2023-02-11T15:51:37;6.10;99.90
4518;DHT22;2271;49.464;11.070;2023-02-11T15:54:18;6.00;99.90
4518;DHT22;2271;49.464;11.070;2023-02-11T15:56:52;6.00;99.90
4518;DHT22;2271;49.464;11.070;2023-02-11T15:59:32;6.10;99.90
4518;DHT22;2271;49.464;11.070;2023-02-11T16:02:08;6.00;99.90
4518;DHT22;2271;49.464;11.070;2023-02-11T16:04:38;6.10;99.90
4518;DHT22;2271;49.464;11.070;2023-02-11T16:10:34;6.00;99.90
4518;DHT22;2271;49.464;11.070;2023-02-11T16:15:47;6.10;99.90
4518;DHT22;2271;49.464;11.070;2023-02-11T16:20:39;6.10;99.90
4518;DHT22;2271;49.464;11.070;2023-02-11T16:23:06;6.00;99.90
4518;DHT22;2271;49.464;11.070;2023-02-11T16:25:34;6.00;99.90
4518;DHT22;2271;49.464;11.070;2023-02-11T16:28:00;6.00;99.90
4518;DHT22;2271;49.464;11.070;2023-02-11T16:32:53;6.00;99.90
4518;DHT22;2271;49.464;11.070;2023-02-11T16:35:19;6.00;99.90
4518;DHT22;2271;49.464;11.070;2023-02-11T16:37:45;6.00;99.90
4518;DHT22;2271;49.464;11.070;2023-02-11T16:40:11;6.10;99.90
4518;DHT22;2271;49.464;11.070;2023-02-11T16:42:37;6.10;99.90
4518;DHT22;2271;49.464;11.070;2023-02-11T16:45:03;6.10;99.90
4518;DHT22;2271;49.464;11.070;2023-02-11T16:47:29;6.10;99.90
4518;DHT22;2271;49.464;11.070;2023-02-11T16:49:57;6.10;99.90
4518;DHT22;2271;49.464;11.070;2023-02-11T16:52:24;6.10;99.90
4518;DHT22;2271;49.464;11.070;2023-02-11T16:54:49;6.10;99.90
4518;DHT22;2271;49.464;11.070;2023-02-11T16:57:16;6.10;99.90
4518;DHT22;2271;49.464;11.070;2023-02-11T16:59:43;6.10;99.90
4518;DHT22;2271;49.464;11.070;2023-02-11T17:02:21;6.10;99.90
4518;DHT22;2271;49.464;11.070;2023-02-11T17:04:47;6.10;99.90
4518;DHT22;2271;49.464;11.070;2023-02-11T17:07:13;6.10;99.90
4518;DHT22;2271;49.464;11.070;2023-02-11T17:09:39;6.10;99.90
4518;DHT22;2271;49.464;11.070;2023-02-11T17:12:04;6.10;99.90
4518;DHT22;2271;49.464;11.070;2023-02-11T17:14:30;6.10;99.90
4518;DHT22;2271;49.464;11.070;2023-02-11T17:16:56;6.10;99.90
4518;DHT22;2271;49.464;11.070;2023-02-11T17:19:22;6.10;99.90
4518;DHT22;2271;49.464;11.070;2023-02-11T17:21:50;6.10;99.90
4518;DHT22;2271;49.464;11.070;2023-02-11T17:24:17;6.10;99.90
4518;DHT22;2271;49.464;11.070;2023-02-11T17:26:44;6.10;99.90
4518;DHT22;2271;49.464;11.070;2023-02-11T17:29:15;6.10;99.90
4518;DHT22;2271;49.464;11.070;2023-02-11T17:31:42;6.10;99.90
4518;DHT22;2271;49.464;11.070;2023-02-11T17:34:07;6.10;99.90
4518;DHT22;2271;49.464;11.070;2023-02-11T17:36:33;6.00;99.90
4518;DHT22;2271;49.464;11.070;2023-02-11T17:38:59;6.10;99.90
4518;DHT22;2271;49.464;11.070;2023-02-11T17:41:26;6.10;99.90
4518;DHT22;2271;49.464;11.070;2023-02-11T17:43:51;6.00;99.90
4518;DHT22;2271;49.464;11.070;2023-02-11T17:46:18;6.00;99.90
4518;DHT22;2271;49.464;11.070;2023-02-11T17:48:43;6.00;99.90
4518;DHT22;2271;49.464;11.070;2023-02-11T17:51:27;6.10;99.90
4518;DHT22;2271;49.464;11.070;2023-02-11T17:53:53;6.00;99.90
4518;DHT22;2271;49.464;11.070;2023-02-11T17:56:21;6.00;99.90
4518;DHT22;2271;49.464;11.070;2023-02-11T17:58:46;6.00;99.90
4518;DHT22;2271;49.464;11.070;2023-02-11T18:01:12;6.00;99.90
4518;DHT22;2271;49.464;11.070;2023-02-11T18:03:37;6.00;99.90
4518;DHT22;2271;49.464;11.070;2023-02-11T18:06:05;6.00;99.90
4518;DHT22;2271;49.464;11.070;2023-02-11T18:08:31;6.00;99.90
4518;DHT22;2271;49.464;11.070;2023-02-11T18:10:57;5.90;99.90
4518;DHT22;2271;49.464;11.070;2023-02-11T18:13:23;6.00;99.90
4518;DHT22;2271;49.464;11.070;2023-02-11T18:15:49;6.00;99.90
4518;DHT22;2271;49.464;11.070;2023-02-11T18:18:14;6.00;99.90
4518;DHT22;2271;49.464;11.070;2023-02-11T18:20:40;6.00;99.90
4518;DHT22;2271;49.464;11.070;2023-02-11T18:23:09;6.00;99.90
4518;DHT22;2271;49.464;11.070;2023-02-11T18:25:35;6.00;99.90
4518;DHT22;2271;49.464;11.070;2023-02-11T18:28:01;6.00;99.90
4518;DHT22;2271;49.464;11.070;2023-02-11T18:30:27;5.90;99.90
4518;DHT22;2271;49.464;11.070;2023-02-11T18:32:55;5.90;99.90
4518;DHT22;2271;49.464;11.070;2023-02-11T18:35:21;6.00;99.90
4518;DHT22;2271;49.464;11.070;2023-02-11T18:37:47;6.00;99.90
4518;DHT22;2271;49.464;11.070;2023-02-11T18:40:13;6.00;99.90
4518;DHT22;2271;49.464;11.070;2023-02-11T18:42:39;6.00;99.90
4518;DHT22;2271;49.464;11.070;2023-02-11T18:45:07;6.00;99.90
4518;DHT22;2271;49.464;11.070;2023-02-11T18:47:36;6.00;99.90
4518;DHT22;2271;49.464;11.070;2023-02-11T18:50:07;6.00;99.90